sensor_id;sensor_type;location;lat;lon;timestamp;temperature;humidity
15355;DHT22;7777;52.254;9.618;2023-04-30T00:00:59;7.30;99.90
15355;DHT22;7777;52.254;9.618;2023-04-30T00:03:25;7.30;99.90
15355;DHT22;7777;52.254;9.618;2023-04-30T00:05:51;7.20;99.90
15355;DHT22;7777;52.254;9.618;2023-04-30T00:08:17;7.20;99.90
15355;DHT22;7777;52.254;9.618;2023-04-30T00:10:43;7.10;99.90
15355;DHT22;7777;52.254;9.618;2023-04-30T00:13:08;7.10;99.90
15355;DHT22;7777;52.254;9.618;2023-04-30T00:15:35;7.00;99.90
15355;DHT22;7777;52.254;9.618;2023-04-30T00:18:01;7.00;99.90
15355;DHT22;7777;52.254;9.618;2023-04-30T00:20:27;6.90;99.90
15355;DHT22;7777;52.254;9.618;2023-04-30T00:22:53;6.90;99.90
15355;DHT22;7777;52.254;9.618;2023-04-30T00:25:19;6.90;99.90
15355;DHT22;7777;52.254;9.618;2023-04-30T00:27:45;6.90;99.90
15355;DHT22;7777;52.254;9.618;2023-04-30T00:30:11;6.80;99.90
15355;DHT22;7777;52.254;9.618;2023-04-30T00:32:37;6.70;99.90
15355;DHT22;7777;52.254;9.618;2023-04-30T00:35:03;6.70;99.90
15355;DHT22;7777;52.254;9.618;2023-04-30T00:37:29;6.60;99.90
15355;DHT22;7777;52.254;9.618;2023-04-30T00:39:55;6.60;99.90
15355;DHT22;7777;52.254;9.618;2023-04-30T00:42:21;6.50;99.90
15355;DHT22;7777;52.254;9.618;2023-04-30T00:44:46;6.50;99.90
15355;DHT22;7777;52.254;9.618;2023-04-30T00:47:12;6.40;99.90
15355;DHT22;7777;52.254;9.618;2023-04-30T00:49:38;6.30;99.90
15355;DHT22;7777;52.254;9.618;2023-04-30T00:52:04;6.30;99.90
15355;DHT22;7777;52.254;9.618;2023-04-30T00:54:30;6.20;99.90
15355;DHT22;7777;52.254;9.618;2023-04-30T00:56:57;6.20;99.90
15355;DHT22;7777;52.254;9.618;2023-04-30T00:59:23;6.20;99.90
15355;DHT22;7777;52.254;9.618;2023-04-30T01:01:49;6.10;99.90
15355;DHT22;7777;52.254;9.618;2023-04-30T01:04:15;6.00;99.90
15355;DHT22;7777;52.254;9.618;2023-04-30T01:06:41;6.00;99.90
15355;DHT22;7777;52.254;9.618;2023-04-30T01:09:08;5.90;99.90
15355;DHT22;7777;52.254;9.618;2023-04-30T01:14:37;5.80;99.90
15355;DHT22;7777;52.254;9.618;2023-04-30T01:17:19;5.80;99.90
15355;DHT22;7777;52.254;9.618;2023-04-30T01:19:48;5.70;99.90
15355;DHT22;7777;52.254;9.618;2023-04-30T01:22:26;5.70;99.90
15355;DHT22;7777;52.254;9.618;2023-04-30T01:28:14;5.60;99.90
15355;DHT22;7777;52.254;9.618;2023-04-30T01:30:41;5.50;99.90
15355;DHT22;7777;52.254;9.618;2023-04-30T01:33:11;5.50;99.90
15355;DHT22;7777;52.254;9.618;2023-04-30T01:44:44;5.30;99.90
15355;DHT22;7777;52.254;9.618;2023-04-30T01:47:28;5.30;99.90
15355;DHT22;7777;52.254;9.618;2023-04-30T01:52:51;5.30;99.90
15355;DHT22;7777;52.254;9.618;2023-04-30T01:58:04;5.20;99.90
15355;DHT22;7777;52.254;9.618;2023-04-30T02:00:31;5.10;99.90
15355;DHT22;7777;52.254;9.618;2023-04-30T02:02:58;5.10;99.90
15355;DHT22;7777;52.254;9.618;2023-04-30T02:05:24;5.10;99.90
15355;DHT22;7777;52.254;9.618;2023-04-30T02:07:50;5.00;99.90
15355;DHT22;7777;52.254;9.618;2023-04-30T02:10:23;5.00;99.90
15355;DHT22;7777;52.254;9.618;2023-04-30T02:12:49;5.00;99.90
15355;DHT22;7777;52.254;9.618;2023-04-30T02:15:15;5.00;99.90
15355;DHT22;7777;52.254;9.618;2023-04-30T02:17:41;4.90;99.90
15355;DHT22;7777;52.254;9.618;2023-04-30T02:20:07;4.90;99.90
15355;DHT22;7777;52.254;9.618;2023-04-30T02:22:34;4.90;99.90
15355;DHT22;7777;52.254;9.618;2023-04-30T02:25:00;4.80;99.90
15355;DHT22;7777;52.254;9.618;2023-04-30T02:27:28;4.80;99.90
15355;DHT22;7777;52.254;9.618;2023-04-30T02:29:55;4.80;99.90
15355;DHT22;7777;52.254;9.618;2023-04-30T02:32:21;4.70;99.90
15355;DHT22;7777;52.254;9.618;2023-04-30T02:34:46;4.70;99.90
15355;DHT22;7777;52.254;9.618;2023-04-30T02:37:12;4.70;99.90
15355;DHT22;7777;52.254;9.618;2023-04-30T02:39:38;4.60;99.90
15355;DHT22;7777;52.254;9.618;2023-04-30T02:42:03;4.60;99.90
15355;DHT22;7777;52.254;9.618;2023-04-30T02:44:31;4.60;99.90
15355;DHT22;7777;52.254;9.618;2023-04-30T02:46:57;4.60;99.90
15355;DHT22;7777;52.254;9.618;2023-04-30T02:49:23;4.60;99.90
15355;DHT22;7777;52.254;9.618;2023-04-30T02:51:49;4.50;99.90
15355;DHT22;7777;52.254;9.618;2023-04-30T02:54:15;4.50;99.90
15355;DHT22;7777;52.254;9.618;2023-04-30T02:56:41;4.50;99.90
15355;DHT22;7777;52.254;9.618;2023-04-30T02:59:08;4.50;99.90
15355;DHT22;7777;52.254;9.618;2023-04-30T03:01:33;4.50;99.90
15355;DHT22;7777;52.254;9.618;2023-04-30T03:03:59;4.40;99.90
15355;DHT22;7777;52.254;9.618;2023-04-30T03:06:25;4.40;99.90
15355;DHT22;7777;52.254;9.618;2023-04-30T03:08:51;4.30;99.90
15355;DHT22;7777;52.254;9.618;2023-04-30T03:11:16;4.30;99.90
15355;DHT22;7777;52.254;9.618;2023-04-30T03:13:42;4.30;99.90
15355;DHT22;7777;52.254;9.618;2023-04-30T03:16:08;4.30;99.90
15355;DHT22;7777;52.254;9.618;2023-04-30T03:18:34;4.20;99.90
15355;DHT22;7777;52.254;9.618;2023-04-30T03:20:59;4.20;99.90
15355;DHT22;7777;52.254;9.618;2023-04-30T03:23:26;4.20;99.90
15355;DHT22;7777;52.254;9.618;2023-04-30T03:25:52;4.10;99.90
15355;DHT22;7777;52.254;9.618;2023-04-30T03:28:18;4.10;99.90
15355;DHT22;7777;52.254;9.618;2023-04-30T03:30:44;4.10;99.90
15355;DHT22;7777;52.254;9.618;2023-04-30T03:33:09;4.10;99.90
15355;DHT22;7777;52.254;9.618;2023-04-30T03:35:35;4.10;99.90
15355;DHT22;7777;52.254;9.618;2023-04-30T03:38:01;4.10;99.90
15355;DHT22;7777;52.254;9.618;2023-04-30T03:40:27;4.10;99.90
15355;DHT22;7777;52.254;9.618;2023-04-30T03:42:53;4.10;99.90
15355;DHT22;7777;52.254;9.618;2023-04-30T03:45:19;4.00;99.90
15355;DHT22;7777;52.254;9.618;2023-04-30T03:47:58;4.00;99.90
15355;DHT22;7777;52.254;9.618;2023-04-30T03:50:24;4.00;99.90
15355;DHT22;7777;52.254;9.618;2023-04-30T03:52:50;4.00;99.90
15355;DHT22;7777;52.254;9.618;2023-04-30T03:55:16;3.90;99.90
15355;DHT22;7777;52.254;9.618;2023-04-30T03:57:41;3.90;99.90
15355;DHT22;7777;52.254;9.618;2023-04-30T04:00:08;3.90;99.90
15355;DHT22;7777;52.254;9.618;2023-04-30T04:02:35;3.90;99.90
15355;DHT22;7777;52.254;9.618;2023-04-30T04:05:02;3.90;99.90
15355;DHT22;7777;52.254;9.618;2023-04-30T04:07:28;3.90;99.90
15355;DHT22;7777;52.254;9.618;2023-04-30T04:09:54;3.90;99.90
15355;DHT22;7777;52.254;9.618;2023-04-30T04:12:20;4.00;99.90
15355;DHT22;7777;52.254;9.618;2023-04-30T04:14:46;4.00;99.90
15355;DHT22;7777;52.254;9.618;2023-04-30T04:17:11;3.90;99.90
15355;DHT22;7777;52.254;9.618;2023-04-30T04:19:38;3.90;99.90
15355;DHT22;7777;52.254;9.618;2023-04-30T04:22:05;3.90;99.90
15355;DHT22;7777;52.254;9.618;2023-04-30T04:24:31;3.80;99.90
15355;DHT22;7777;52.254;9.618;2023-04-30T04:26:57;3.80;99.90
15355;DHT22;7777;52.254;9.618;2023-04-30T04:29:24;3.80;99.90
15355;DHT22;7777;52.254;9.618;2023-04-30T04:31:50;3.80;99.90
15355;DHT22;7777;52.254;9.618;2023-04-30T04:34:16;3.80;99.90
15355;DHT22;7777;52.254;9.618;2023-04-30T04:36:42;3.80;99.90
15355;DHT22;7777;52.254;9.618;2023-04-30T04:39:08;3.90;99.90
15355;DHT22;7777;52.254;9.618;2023-04-30T04:41:34;3.90;99.90
15355;DHT22;7777;52.254;9.618;2023-04-30T04:44:00;3.90;99.90
15355;DHT22;7777;52.254;9.618;2023-04-30T04:46:27;3.90;99.90
15355;DHT22;7777;52.254;9.618;2023-04-30T04:48:54;3.90;99.90
15355;DHT22;7777;52.254;9.618;2023-04-30T04:51:20;4.00;99.90
15355;DHT22;7777;52.254;9.618;2023-04-30T04:53:46;4.00;99.90
15355;DHT22;7777;52.254;9.618;2023-04-30T04:56:12;4.00;99.90
15355;DHT22;7777;52.254;9.618;2023-04-30T04:58:38;4.10;99.90
15355;DHT22;7777;52.254;9.618;2023-04-30T05:01:04;4.10;99.90
15355;DHT22;7777;52.254;9.618;2023-04-30T05:03:31;4.20;99.90
15355;DHT22;7777;52.254;9.618;2023-04-30T05:05:58;4.20;99.90
15355;DHT22;7777;52.254;9.618;2023-04-30T05:08:23;4.30;99.90
15355;DHT22;7777;52.254;9.618;2023-04-30T05:10:49;4.30;99.90
15355;DHT22;7777;52.254;9.618;2023-04-30T05:13:15;4.40;99.90
15355;DHT22;7777;52.254;9.618;2023-04-30T05:15:45;4.40;99.90
15355;DHT22;7777;52.254;9.618;2023-04-30T05:18:12;4.50;99.90
15355;DHT22;7777;52.254;9.618;2023-04-30T05:20:37;4.60;99.90
15355;DHT22;7777;52.254;9.618;2023-04-30T05:23:03;4.70;99.90
15355;DHT22;7777;52.254;9.618;2023-04-30T05:25:29;4.70;99.90
15355;DHT22;7777;52.254;9.618;2023-04-30T05:27:55;4.80;99.90
15355;DHT22;7777;52.254;9.618;2023-04-30T05:30:21;4.90;99.90
15355;DHT22;7777;52.254;9.618;2023-04-30T05:32:47;4.90;99.90
15355;DHT22;7777;52.254;9.618;2023-04-30T05:35:16;5.00;99.90
15355;DHT22;7777;52.254;9.618;2023-04-30T05:37:42;5.10;99.90
15355;DHT22;7777;52.254;9.618;2023-04-30T05:40:08;5.20;99.90
15355;DHT22;7777;52.254;9.618;2023-04-30T05:42:35;5.30;99.90
15355;DHT22;7777;52.254;9.618;2023-04-30T05:45:02;5.40;99.90
15355;DHT22;7777;52.254;9.618;2023-04-30T05:47:28;5.40;99.90
15355;DHT22;7777;52.254;9.618;2023-04-30T05:49:55;5.50;99.90
15355;DHT22;7777;52.254;9.618;2023-04-30T05:52:22;5.60;99.90
15355;DHT22;7777;52.254;9.618;2023-04-30T05:54:48;5.70;99.90
15355;DHT22;7777;52.254;9.618;2023-04-30T05:57:13;5.70;99.90
15355;DHT22;7777;52.254;9.618;2023-04-30T05:59:39;5.80;99.90
15355;DHT22;7777;52.254;9.618;2023-04-30T06:02:06;5.90;99.90
15355;DHT22;7777;52.254;9.618;2023-04-30T06:04:31;6.00;99.90
15355;DHT22;7777;52.254;9.618;2023-04-30T06:06:57;6.00;99.90
15355;DHT22;7777;52.254;9.618;2023-04-30T06:09:23;6.10;99.90
15355;DHT22;7777;52.254;9.618;2023-04-30T06:11:49;6.20;99.90
15355;DHT22;7777;52.254;9.618;2023-04-30T06:14:16;6.30;99.90
15355;DHT22;7777;52.254;9.618;2023-04-30T06:16:43;6.30;99.90
15355;DHT22;7777;52.254;9.618;2023-04-30T06:19:10;6.40;99.90
15355;DHT22;7777;52.254;9.618;2023-04-30T06:21:36;6.50;99.90
15355;DHT22;7777;52.254;9.618;2023-04-30T06:24:02;6.50;99.90
15355;DHT22;7777;52.254;9.618;2023-04-30T06:26:28;6.60;99.90
15355;DHT22;7777;52.254;9.618;2023-04-30T06:28:53;6.70;99.90
15355;DHT22;7777;52.254;9.618;2023-04-30T06:31:20;6.80;99.90
15355;DHT22;7777;52.254;9.618;2023-04-30T06:33:46;6.80;99.90
15355;DHT22;7777;52.254;9.618;2023-04-30T06:36:12;6.90;99.90
15355;DHT22;7777;52.254;9.618;2023-04-30T06:38:38;7.00;99.90
15355;DHT22;7777;52.254;9.618;2023-04-30T06:41:04;7.00;99.90
15355;DHT22;7777;52.254;9.618;2023-04-30T06:43:44;7.10;99.90
15355;DHT22;7777;52.254;9.618;2023-04-30T06:46:09;7.20;99.90
15355;DHT22;7777;52.254;9.618;2023-04-30T06:48:35;7.20;99.90
15355;DHT22;7777;52.254;9.618;2023-04-30T06:51:01;7.30;99.90
15355;DHT22;7777;52.254;9.618;2023-04-30T06:53:27;7.40;99.90
15355;DHT22;7777;52.254;9.618;2023-04-30T06:55:53;7.50;99.90
15355;DHT22;7777;52.254;9.618;2023-04-30T06:58:19;7.60;99.90
15355;DHT22;7777;52.254;9.618;2023-04-30T07:00:45;7.60;99.90
15355;DHT22;7777;52.254;9.618;2023-04-30T07:03:11;7.70;99.90
15355;DHT22;7777;52.254;9.618;2023-04-30T07:05:37;7.80;99.90
15355;DHT22;7777;52.254;9.618;2023-04-30T07:08:03;7.90;99.90
15355;DHT22;7777;52.254;9.618;2023-04-30T07:10:31;8.00;99.90
15355;DHT22;7777;52.254;9.618;2023-04-30T07:12:57;8.00;99.90
15355;DHT22;7777;52.254;9.618;2023-04-30T07:15:23;8.10;99.90
15355;DHT22;7777;52.254;9.618;2023-04-30T07:17:49;8.10;99.90
15355;DHT22;7777;52.254;9.618;2023-04-30T07:20:15;8.20;99.90
15355;DHT22;7777;52.254;9.618;2023-04-30T07:22:41;8.30;99.90
15355;DHT22;7777;52.254;9.618;2023-04-30T07:25:13;8.30;99.90
15355;DHT22;7777;52.254;9.618;2023-04-30T07:27:40;8.40;99.90
15355;DHT22;7777;52.254;9.618;2023-04-30T07:30:07;8.40;99.90
15355;DHT22;7777;52.254;9.618;2023-04-30T07:32:35;8.40;99.90
15355;DHT22;7777;52.254;9.618;2023-04-30T07:35:02;8.50;99.90
15355;DHT22;7777;52.254;9.618;2023-04-30T07:37:28;8.50;99.90
15355;DHT22;7777;52.254;9.618;2023-04-30T07:39:54;8.60;99.90
15355;DHT22;7777;52.254;9.618;2023-04-30T07:42:21;8.70;99.90
15355;DHT22;7777;52.254;9.618;2023-04-30T07:44:46;8.70;99.90
15355;DHT22;7777;52.254;9.618;2023-04-30T07:47:13;8.80;99.90
15355;DHT22;7777;52.254;9.618;2023-04-30T07:49:39;8.80;99.90
15355;DHT22;7777;52.254;9.618;2023-04-30T07:52:05;8.90;99.90
15355;DHT22;7777;52.254;9.618;2023-04-30T07:54:32;8.80;99.90
15355;DHT22;7777;52.254;9.618;2023-04-30T07:57:00;8.90;99.90
15355;DHT22;7777;52.254;9.618;2023-04-30T07:59:27;9.00;99.90
15355;DHT22;7777;52.254;9.618;2023-04-30T08:01:53;9.00;99.90
15355;DHT22;7777;52.254;9.618;2023-04-30T08:04:19;9.10;99.90
15355;DHT22;7777;52.254;9.618;2023-04-30T08:06:45;9.20;99.90
15355;DHT22;7777;52.254;9.618;2023-04-30T08:09:10;9.30;99.90
15355;DHT22;7777;52.254;9.618;2023-04-30T08:11:36;9.40;99.90
15355;DHT22;7777;52.254;9.618;2023-04-30T08:14:02;9.50;99.90
15355;DHT22;7777;52.254;9.618;2023-04-30T08:16:28;9.60;99.90
15355;DHT22;7777;52.254;9.618;2023-04-30T08:18:54;9.70;99.90
15355;DHT22;7777;52.254;9.618;2023-04-30T08:21:20;9.80;99.90
15355;DHT22;7777;52.254;9.618;2023-04-30T08:23:46;9.90;99.90
15355;DHT22;7777;52.254;9.618;2023-04-30T08:26:12;9.90;99.90
15355;DHT22;7777;52.254;9.618;2023-04-30T08:28:37;10.00;99.90
15355;DHT22;7777;52.254;9.618;2023-04-30T08:31:03;10.10;99.90
15355;DHT22;7777;52.254;9.618;2023-04-30T08:33:29;10.20;99.90
15355;DHT22;7777;52.254;9.618;2023-04-30T08:35:56;10.30;99.90
15355;DHT22;7777;52.254;9.618;2023-04-30T08:38:34;10.30;99.90
15355;DHT22;7777;52.254;9.618;2023-04-30T08:41:13;10.40;99.90
15355;DHT22;7777;52.254;9.618;2023-04-30T08:43:42;10.50;99.90
15355;DHT22;7777;52.254;9.618;2023-04-30T08:46:11;10.50;99.90
15355;DHT22;7777;52.254;9.618;2023-04-30T08:48:41;10.60;99.90
15355;DHT22;7777;52.254;9.618;2023-04-30T08:51:12;10.60;99.90
15355;DHT22;7777;52.254;9.618;2023-04-30T08:53:42;10.70;99.90
15355;DHT22;7777;52.254;9.618;2023-04-30T08:56:09;10.70;99.90
15355;DHT22;7777;52.254;9.618;2023-04-30T08:58:35;10.70;99.90
15355;DHT22;7777;52.254;9.618;2023-04-30T09:01:02;10.70;99.90
15355;DHT22;7777;52.254;9.618;2023-04-30T09:03:30;10.80;99.90
15355;DHT22;7777;52.254;9.618;2023-04-30T09:05:56;10.90;99.90
15355;DHT22;7777;52.254;9.618;2023-04-30T09:08:45;11.00;99.90
15355;DHT22;7777;52.254;9.618;2023-04-30T09:13:58;11.20;99.90
15355;DHT22;7777;52.254;9.618;2023-04-30T09:16:26;11.20;99.90
15355;DHT22;7777;52.254;9.618;2023-04-30T09:18:57;11.30;99.90
15355;DHT22;7777;52.254;9.618;2023-04-30T09:21:32;11.40;99.90
15355;DHT22;7777;52.254;9.618;2023-04-30T09:24:00;11.40;99.90
15355;DHT22;7777;52.254;9.618;2023-04-30T09:26:35;11.50;99.90
15355;DHT22;7777;52.254;9.618;2023-04-30T09:29:05;11.60;99.90
15355;DHT22;7777;52.254;9.618;2023-04-30T09:31:36;11.60;99.90
15355;DHT22;7777;52.254;9.618;2023-04-30T09:34:03;11.70;99.90
15355;DHT22;7777;52.254;9.618;2023-04-30T09:36:30;11.80;99.90
15355;DHT22;7777;52.254;9.618;2023-04-30T09:39:06;11.80;99.80
15355;DHT22;7777;52.254;9.618;2023-04-30T09:41:41;11.80;99.30
15355;DHT22;7777;52.254;9.618;2023-04-30T09:44:28;11.80;99.80
15355;DHT22;7777;52.254;9.618;2023-04-30T09:46:56;12.00;99.90
15355;DHT22;7777;52.254;9.618;2023-04-30T09:49:24;12.00;99.60
15355;DHT22;7777;52.254;9.618;2023-04-30T09:51:59;12.10;99.90
15355;DHT22;7777;52.254;9.618;2023-04-30T09:54:28;12.20;99.90
15355;DHT22;7777;52.254;9.618;2023-04-30T09:56:59;12.30;99.90
15355;DHT22;7777;52.254;9.618;2023-04-30T09:59:30;12.40;99.90
15355;DHT22;7777;52.254;9.618;2023-04-30T10:02:01;12.60;99.90
15355;DHT22;7777;52.254;9.618;2023-04-30T10:04:37;12.60;99.90
15355;DHT22;7777;52.254;9.618;2023-04-30T10:07:07;12.80;99.90
15355;DHT22;7777;52.254;9.618;2023-04-30T10:09:40;12.90;99.90
15355;DHT22;7777;52.254;9.618;2023-04-30T10:12:23;13.10;99.90
15355;DHT22;7777;52.254;9.618;2023-04-30T10:17:37;13.30;99.90
15355;DHT22;7777;52.254;9.618;2023-04-30T10:20:08;13.40;99.90
15355;DHT22;7777;52.254;9.618;2023-04-30T10:22:35;13.50;99.90
15355;DHT22;7777;52.254;9.618;2023-04-30T10:25:02;13.70;99.90
15355;DHT22;7777;52.254;9.618;2023-04-30T10:27:31;13.80;99.90
15355;DHT22;7777;52.254;9.618;2023-04-30T10:29:58;13.90;99.90
15355;DHT22;7777;52.254;9.618;2023-04-30T10:32:43;14.00;99.90
15355;DHT22;7777;52.254;9.618;2023-04-30T10:35:18;14.10;99.90
15355;DHT22;7777;52.254;9.618;2023-04-30T10:37:54;14.20;99.90
15355;DHT22;7777;52.254;9.618;2023-04-30T10:40:26;14.30;99.90
15355;DHT22;7777;52.254;9.618;2023-04-30T10:42:52;14.30;99.90
15355;DHT22;7777;52.254;9.618;2023-04-30T10:45:34;14.40;99.90
15355;DHT22;7777;52.254;9.618;2023-04-30T10:48:05;14.50;99.90
15355;DHT22;7777;52.254;9.618;2023-04-30T10:50:31;14.60;99.00
15355;DHT22;7777;52.254;9.618;2023-04-30T10:53:04;14.70;99.90
15355;DHT22;7777;52.254;9.618;2023-04-30T10:55:31;14.70;99.90
15355;DHT22;7777;52.254;9.618;2023-04-30T10:57:58;14.80;98.90
15355;DHT22;7777;52.254;9.618;2023-04-30T11:00:24;14.90;99.90
15355;DHT22;7777;52.254;9.618;2023-04-30T11:02:56;14.90;98.10
15355;DHT22;7777;52.254;9.618;2023-04-30T11:05:37;15.00;99.90
15355;DHT22;7777;52.254;9.618;2023-04-30T11:08:03;15.10;97.30
15355;DHT22;7777;52.254;9.618;2023-04-30T11:10:34;15.20;99.10
15355;DHT22;7777;52.254;9.618;2023-04-30T11:13:06;15.30;98.90
15355;DHT22;7777;52.254;9.618;2023-04-30T11:15:40;15.30;98.90
15355;DHT22;7777;52.254;9.618;2023-04-30T11:18:07;15.50;99.80
15355;DHT22;7777;52.254;9.618;2023-04-30T11:20:47;15.50;97.90
15355;DHT22;7777;52.254;9.618;2023-04-30T11:23:16;15.50;98.20
15355;DHT22;7777;52.254;9.618;2023-04-30T11:25:44;15.60;99.10
15355;DHT22;7777;52.254;9.618;2023-04-30T11:28:24;15.60;95.70
15355;DHT22;7777;52.254;9.618;2023-04-30T11:30:58;15.70;98.80
15355;DHT22;7777;52.254;9.618;2023-04-30T11:33:31;15.80;98.90
15355;DHT22;7777;52.254;9.618;2023-04-30T11:35:59;15.90;97.80
15355;DHT22;7777;52.254;9.618;2023-04-30T11:38:27;15.90;97.80
15355;DHT22;7777;52.254;9.618;2023-04-30T11:40:56;16.00;98.80
15355;DHT22;7777;52.254;9.618;2023-04-30T11:43:32;16.10;98.40
15355;DHT22;7777;52.254;9.618;2023-04-30T11:46:03;16.20;97.70
15355;DHT22;7777;52.254;9.618;2023-04-30T11:48:41;16.30;98.00
15355;DHT22;7777;52.254;9.618;2023-04-30T11:51:18;16.30;96.70
15355;DHT22;7777;52.254;9.618;2023-04-30T11:53:47;16.30;98.00
15355;DHT22;7777;52.254;9.618;2023-04-30T11:56:26;16.50;95.60
15355;DHT22;7777;52.254;9.618;2023-04-30T11:58:52;16.40;95.30
15355;DHT22;7777;52.254;9.618;2023-04-30T12:01:20;16.40;95.30
15355;DHT22;7777;52.254;9.618;2023-04-30T12:03:49;16.50;92.70
15355;DHT22;7777;52.254;9.618;2023-04-30T12:06:25;16.50;95.10
15355;DHT22;7777;52.254;9.618;2023-04-30T12:08:55;16.60;94.10
15355;DHT22;7777;52.254;9.618;2023-04-30T12:11:30;16.50;92.60
15355;DHT22;7777;52.254;9.618;2023-04-30T12:14:04;16.60;93.70
15355;DHT22;7777;52.254;9.618;2023-04-30T12:19:04;16.80;95.90
15355;DHT22;7777;52.254;9.618;2023-04-30T12:21:30;16.90;92.60
15355;DHT22;7777;52.254;9.618;2023-04-30T12:23:56;16.90;94.50
15355;DHT22;7777;52.254;9.618;2023-04-30T12:26:22;17.00;94.30
15355;DHT22;7777;52.254;9.618;2023-04-30T12:28:48;17.10;94.40
15355;DHT22;7777;52.254;9.618;2023-04-30T12:31:16;17.20;91.20
15355;DHT22;7777;52.254;9.618;2023-04-30T12:33:43;17.00;90.30
15355;DHT22;7777;52.254;9.618;2023-04-30T12:36:12;17.00;90.10
15355;DHT22;7777;52.254;9.618;2023-04-30T12:38:42;17.10;90.50
15355;DHT22;7777;52.254;9.618;2023-04-30T12:41:11;17.10;89.40
15355;DHT22;7777;52.254;9.618;2023-04-30T12:43:41;17.10;91.50
15355;DHT22;7777;52.254;9.618;2023-04-30T12:46:07;17.10;90.50
15355;DHT22;7777;52.254;9.618;2023-04-30T12:48:42;17.10;87.70
15355;DHT22;7777;52.254;9.618;2023-04-30T12:51:11;17.20;88.90
15355;DHT22;7777;52.254;9.618;2023-04-30T12:53:46;17.30;92.80
15355;DHT22;7777;52.254;9.618;2023-04-30T12:56:15;17.40;92.10
15355;DHT22;7777;52.254;9.618;2023-04-30T12:58:43;17.50;91.70
15355;DHT22;7777;52.254;9.618;2023-04-30T13:01:15;17.50;92.10
15355;DHT22;7777;52.254;9.618;2023-04-30T13:03:42;17.60;92.60
15355;DHT22;7777;52.254;9.618;2023-04-30T13:06:08;17.70;91.70
15355;DHT22;7777;52.254;9.618;2023-04-30T13:08:35;17.80;91.60
15355;DHT22;7777;52.254;9.618;2023-04-30T13:11:01;17.70;85.90
15355;DHT22;7777;52.254;9.618;2023-04-30T13:13:26;17.50;85.70
15355;DHT22;7777;52.254;9.618;2023-04-30T13:15:52;17.60;90.80
15355;DHT22;7777;52.254;9.618;2023-04-30T13:18:18;17.60;85.30
15355;DHT22;7777;52.254;9.618;2023-04-30T13:20:44;17.50;83.90
15355;DHT22;7777;52.254;9.618;2023-04-30T13:23:10;17.50;85.90
15355;DHT22;7777;52.254;9.618;2023-04-30T13:25:40;17.60;87.70
15355;DHT22;7777;52.254;9.618;2023-04-30T13:28:06;17.70;85.30
15355;DHT22;7777;52.254;9.618;2023-04-30T13:30:32;17.80;88.10
15355;DHT22;7777;52.254;9.618;2023-04-30T13:32:59;17.80;90.70
15355;DHT22;7777;52.254;9.618;2023-04-30T13:35:25;17.90;90.30
15355;DHT22;7777;52.254;9.618;2023-04-30T13:37:51;17.90;85.90
15355;DHT22;7777;52.254;9.618;2023-04-30T13:40:19;17.90;86.20
15355;DHT22;7777;52.254;9.618;2023-04-30T13:42:46;18.00;86.70
15355;DHT22;7777;52.254;9.618;2023-04-30T13:45:12;18.00;86.00
15355;DHT22;7777;52.254;9.618;2023-04-30T13:47:38;18.00;83.70
15355;DHT22;7777;52.254;9.618;2023-04-30T13:50:10;18.00;89.90
15355;DHT22;7777;52.254;9.618;2023-04-30T13:52:36;18.10;86.70
15355;DHT22;7777;52.254;9.618;2023-04-30T13:55:02;18.10;88.90
15355;DHT22;7777;52.254;9.618;2023-04-30T13:57:29;18.10;90.50
15355;DHT22;7777;52.254;9.618;2023-04-30T13:59:57;18.10;85.70
15355;DHT22;7777;52.254;9.618;2023-04-30T14:02:23;18.00;83.40
15355;DHT22;7777;52.254;9.618;2023-04-30T14:04:48;17.90;84.20
15355;DHT22;7777;52.254;9.618;2023-04-30T14:07:14;17.90;86.00
15355;DHT22;7777;52.254;9.618;2023-04-30T14:09:40;17.90;90.50
15355;DHT22;7777;52.254;9.618;2023-04-30T14:12:06;17.90;84.60
15355;DHT22;7777;52.254;9.618;2023-04-30T14:14:31;17.80;85.20
15355;DHT22;7777;52.254;9.618;2023-04-30T14:16:57;17.70;82.10
15355;DHT22;7777;52.254;9.618;2023-04-30T14:19:23;17.50;81.40
15355;DHT22;7777;52.254;9.618;2023-04-30T14:21:49;17.40;83.60
15355;DHT22;7777;52.254;9.618;2023-04-30T14:24:15;17.40;82.60
15355;DHT22;7777;52.254;9.618;2023-04-30T14:26:41;17.30;82.50
15355;DHT22;7777;52.254;9.618;2023-04-30T14:29:07;17.40;83.70
15355;DHT22;7777;52.254;9.618;2023-04-30T14:31:33;17.30;82.10
15355;DHT22;7777;52.254;9.618;2023-04-30T14:33:59;17.20;79.90
15355;DHT22;7777;52.254;9.618;2023-04-30T14:36:25;17.10;80.50
15355;DHT22;7777;52.254;9.618;2023-04-30T14:38:52;17.20;82.60
15355;DHT22;7777;52.254;9.618;2023-04-30T14:41:18;17.10;79.40
15355;DHT22;7777;52.254;9.618;2023-04-30T14:43:44;16.90;78.00
15355;DHT22;7777;52.254;9.618;2023-04-30T14:46:12;16.90;82.60
15355;DHT22;7777;52.254;9.618;2023-04-30T14:48:41;16.90;81.40
15355;DHT22;7777;52.254;9.618;2023-04-30T14:51:07;16.80;80.70
15355;DHT22;7777;52.254;9.618;2023-04-30T14:53:33;16.80;82.50
15355;DHT22;7777;52.254;9.618;2023-04-30T14:55:59;16.80;85.80
15355;DHT22;7777;52.254;9.618;2023-04-30T14:58:24;16.90;87.10
15355;DHT22;7777;52.254;9.618;2023-04-30T15:00:50;16.80;82.10
15355;DHT22;7777;52.254;9.618;2023-04-30T15:03:16;16.70;83.90
15355;DHT22;7777;52.254;9.618;2023-04-30T15:05:42;16.70;83.20
15355;DHT22;7777;52.254;9.618;2023-04-30T15:08:08;16.80;86.50
15355;DHT22;7777;52.254;9.618;2023-04-30T15:10:34;16.80;88.00
15355;DHT22;7777;52.254;9.618;2023-04-30T15:13:03;16.80;85.90
15355;DHT22;7777;52.254;9.618;2023-04-30T15:15:29;16.80;88.30
15355;DHT22;7777;52.254;9.618;2023-04-30T15:17:56;16.70;85.20
15355;DHT22;7777;52.254;9.618;2023-04-30T15:20:22;16.60;81.60
15355;DHT22;7777;52.254;9.618;2023-04-30T15:22:49;16.60;82.70
15355;DHT22;7777;52.254;9.618;2023-04-30T15:25:15;16.50;84.50
15355;DHT22;7777;52.254;9.618;2023-04-30T15:27:44;16.40;80.30
15355;DHT22;7777;52.254;9.618;2023-04-30T15:30:10;16.40;80.20
15355;DHT22;7777;52.254;9.618;2023-04-30T15:32:36;16.30;78.90
15355;DHT22;7777;52.254;9.618;2023-04-30T15:35:02;16.30;82.40
15355;DHT22;7777;52.254;9.618;2023-04-30T15:37:28;16.30;82.30
15355;DHT22;7777;52.254;9.618;2023-04-30T15:39:58;16.30;81.00
15355;DHT22;7777;52.254;9.618;2023-04-30T15:42:25;16.30;81.60
15355;DHT22;7777;52.254;9.618;2023-04-30T15:44:51;16.20;81.60
15355;DHT22;7777;52.254;9.618;2023-04-30T15:47:17;16.10;79.00
15355;DHT22;7777;52.254;9.618;2023-04-30T15:49:42;16.10;82.70
15355;DHT22;7777;52.254;9.618;2023-04-30T15:52:08;16.10;81.50
15355;DHT22;7777;52.254;9.618;2023-04-30T15:54:36;16.00;81.20
15355;DHT22;7777;52.254;9.618;2023-04-30T15:57:01;16.00;81.00
15355;DHT22;7777;52.254;9.618;2023-04-30T15:59:28;15.90;81.80
15355;DHT22;7777;52.254;9.618;2023-04-30T16:01:54;16.00;81.50
15355;DHT22;7777;52.254;9.618;2023-04-30T16:04:20;15.90;79.90
15355;DHT22;7777;52.254;9.618;2023-04-30T16:06:49;15.90;80.70
15355;DHT22;7777;52.254;9.618;2023-04-30T16:09:14;15.80;80.80
15355;DHT22;7777;52.254;9.618;2023-04-30T16:11:47;15.80;82.50
15355;DHT22;7777;52.254;9.618;2023-04-30T16:14:15;15.80;79.90
15355;DHT22;7777;52.254;9.618;2023-04-30T16:16:40;15.80;80.60
15355;DHT22;7777;52.254;9.618;2023-04-30T16:19:06;15.70;81.60
15355;DHT22;7777;52.254;9.618;2023-04-30T16:21:33;15.70;80.10
15355;DHT22;7777;52.254;9.618;2023-04-30T16:24:02;15.70;83.20
15355;DHT22;7777;52.254;9.618;2023-04-30T16:26:28;15.70;84.00